sensor_id;sensor_type;location;lat;lon;timestamp;temperature;humidity
21570;DHT22;57598;50.888;4.746;2023-05-10T00:01:14;13.10;99.90
21570;DHT22;57598;50.888;4.746;2023-05-10T00:03:41;13.10;99.90
21570;DHT22;57598;50.888;4.746;2023-05-10T00:06:08;13.10;99.90
21570;DHT22;57598;50.888;4.746;2023-05-10T00:08:35;13.10;99.90
21570;DHT22;57598;50.888;4.746;2023-05-10T00:11:02;13.10;99.90
21570;DHT22;57598;50.888;4.746;2023-05-10T00:13:31;13.10;99.90
21570;DHT22;57598;50.888;4.746;2023-05-10T00:15:58;13.10;99.90
21570;DHT22;57598;50.888;4.746;2023-05-10T00:18:25;13.10;99.90
21570;DHT22;57598;50.888;4.746;2023-05-10T00:20:52;13.10;99.90
21570;DHT22;57598;50.888;4.746;2023-05-10T00:23:19;13.10;99.90
21570;DHT22;57598;50.888;4.746;2023-05-10T00:25:46;13.10;99.90
21570;DHT22;57598;50.888;4.746;2023-05-10T00:28:13;13.10;99.90
21570;DHT22;57598;50.888;4.746;2023-05-10T00:30:41;13.10;99.90
21570;DHT22;57598;50.888;4.746;2023-05-10T00:33:08;13.10;99.90
21570;DHT22;57598;50.888;4.746;2023-05-10T00:35:37;13.10;99.90
21570;DHT22;57598;50.888;4.746;2023-05-10T00:38:04;13.10;99.90
21570;DHT22;57598;50.888;4.746;2023-05-10T00:40:30;13.10;99.90
21570;DHT22;57598;50.888;4.746;2023-05-10T00:42:57;13.10;99.90
21570;DHT22;57598;50.888;4.746;2023-05-10T00:45:25;13.10;99.90
21570;DHT22;57598;50.888;4.746;2023-05-10T00:47:54;13.10;99.90
21570;DHT22;57598;50.888;4.746;2023-05-10T00:50:21;13.10;99.90
21570;DHT22;57598;50.888;4.746;2023-05-10T00:52:49;13.10;99.90
21570;DHT22;57598;50.888;4.746;2023-05-10T00:55:16;13.10;99.90
21570;DHT22;57598;50.888;4.746;2023-05-10T00:57:44;13.10;99.90
21570;DHT22;57598;50.888;4.746;2023-05-10T01:00:12;13.10;99.90
21570;DHT22;57598;50.888;4.746;2023-05-10T01:02:43;13.10;99.90
21570;DHT22;57598;50.888;4.746;2023-05-10T01:05:13;13.10;99.90
21570;DHT22;57598;50.888;4.746;2023-05-10T01:07:40;13.10;99.90
21570;DHT22;57598;50.888;4.746;2023-05-10T01:10:08;13.10;99.90
21570;DHT22;57598;50.888;4.746;2023-05-10T01:12:38;13.10;99.90
21570;DHT22;57598;50.888;4.746;2023-05-10T01:15:07;13.10;99.90
21570;DHT22;57598;50.888;4.746;2023-05-10T01:17:35;13.10;99.90
21570;DHT22;57598;50.888;4.746;2023-05-10T01:20:05;13.00;99.90
21570;DHT22;57598;50.888;4.746;2023-05-10T01:22:57;13.10;99.90
21570;DHT22;57598;50.888;4.746;2023-05-10T01:25:52;13.10;99.90
21570;DHT22;57598;50.888;4.746;2023-05-10T01:28:44;13.10;99.90
21570;DHT22;57598;50.888;4.746;2023-05-10T01:31:30;13.10;99.90
21570;DHT22;57598;50.888;4.746;2023-05-10T01:34:04;13.10;99.90
21570;DHT22;57598;50.888;4.746;2023-05-10T01:36:40;13.10;99.90
21570;DHT22;57598;50.888;4.746;2023-05-10T01:39:15;13.10;99.90
21570;DHT22;57598;50.888;4.746;2023-05-10T01:41:49;13.10;99.90
21570;DHT22;57598;50.888;4.746;2023-05-10T01:44:34;13.10;99.90
21570;DHT22;57598;50.888;4.746;2023-05-10T01:47:05;13.10;99.90
21570;DHT22;57598;50.888;4.746;2023-05-10T01:49:41;13.10;99.90
21570;DHT22;57598;50.888;4.746;2023-05-10T01:52:11;13.10;99.90
21570;DHT22;57598;50.888;4.746;2023-05-10T01:54:44;13.10;99.90
21570;DHT22;57598;50.888;4.746;2023-05-10T01:57:16;13.10;99.90
21570;DHT22;57598;50.888;4.746;2023-05-10T01:59:50;13.10;99.90
21570;DHT22;57598;50.888;4.746;2023-05-10T02:02:20;13.10;99.90
21570;DHT22;57598;50.888;4.746;2023-05-10T02:04:49;13.10;99.90
21570;DHT22;57598;50.888;4.746;2023-05-10T02:07:17;13.10;99.90
21570;DHT22;57598;50.888;4.746;2023-05-10T02:09:45;13.10;99.90
21570;DHT22;57598;50.888;4.746;2023-05-10T02:12:14;13.10;99.90
21570;DHT22;57598;50.888;4.746;2023-05-10T02:14:42;13.10;99.90
21570;DHT22;57598;50.888;4.746;2023-05-10T02:17:10;13.10;99.90
21570;DHT22;57598;50.888;4.746;2023-05-10T02:19:40;13.10;99.90
21570;DHT22;57598;50.888;4.746;2023-05-10T02:22:09;13.10;99.90
21570;DHT22;57598;50.888;4.746;2023-05-10T02:24:38;13.10;99.90
21570;DHT22;57598;50.888;4.746;2023-05-10T02:27:07;13.10;99.90
21570;DHT22;57598;50.888;4.746;2023-05-10T02:29:36;13.10;99.90
21570;DHT22;57598;50.888;4.746;2023-05-10T02:32:03;13.10;99.90
21570;DHT22;57598;50.888;4.746;2023-05-10T02:34:31;13.10;99.90
21570;DHT22;57598;50.888;4.746;2023-05-10T02:36:59;13.10;99.90
21570;DHT22;57598;50.888;4.746;2023-05-10T02:39:28;13.10;99.90
21570;DHT22;57598;50.888;4.746;2023-05-10T02:41:57;13.10;99.90
21570;DHT22;57598;50.888;4.746;2023-05-10T02:44:26;13.10;99.90
21570;DHT22;57598;50.888;4.746;2023-05-10T02:46:54;13.20;99.90
21570;DHT22;57598;50.888;4.746;2023-05-10T02:49:22;13.20;99.90
21570;DHT22;57598;50.888;4.746;2023-05-10T02:51:53;13.20;99.90
21570;DHT22;57598;50.888;4.746;2023-05-10T02:54:27;13.20;99.90
21570;DHT22;57598;50.888;4.746;2023-05-10T02:56:58;13.20;99.90
21570;DHT22;57598;50.888;4.746;2023-05-10T02:59:27;13.20;99.90
21570;DHT22;57598;50.888;4.746;2023-05-10T03:01:54;13.20;99.90
21570;DHT22;57598;50.888;4.746;2023-05-10T03:04:21;13.20;99.90
21570;DHT22;57598;50.888;4.746;2023-05-10T03:06:48;13.20;99.90
21570;DHT22;57598;50.888;4.746;2023-05-10T03:09:15;13.20;99.90
21570;DHT22;57598;50.888;4.746;2023-05-10T03:11:53;13.20;99.90
21570;DHT22;57598;50.888;4.746;2023-05-10T03:14:32;13.20;99.90
21570;DHT22;57598;50.888;4.746;2023-05-10T03:17:06;13.20;99.90
21570;DHT22;57598;50.888;4.746;2023-05-10T03:19:45;13.20;99.90
21570;DHT22;57598;50.888;4.746;2023-05-10T03:22:21;13.20;99.90
21570;DHT22;57598;50.888;4.746;2023-05-10T03:24:51;13.20;99.90
21570;DHT22;57598;50.888;4.746;2023-05-10T03:27:22;13.20;99.90
21570;DHT22;57598;50.888;4.746;2023-05-10T03:29:53;13.30;99.90
21570;DHT22;57598;50.888;4.746;2023-05-10T03:32:22;13.30;99.90
21570;DHT22;57598;50.888;4.746;2023-05-10T03:34:49;13.30;99.90
21570;DHT22;57598;50.888;4.746;2023-05-10T03:37:16;13.30;99.90
21570;DHT22;57598;50.888;4.746;2023-05-10T03:39:43;13.30;99.90
21570;DHT22;57598;50.888;4.746;2023-05-10T03:42:10;13.20;99.90
21570;DHT22;57598;50.888;4.746;2023-05-10T03:44:38;13.10;99.90
21570;DHT22;57598;50.888;4.746;2023-05-10T03:47:06;12.90;99.90
21570;DHT22;57598;50.888;4.746;2023-05-10T03:49:33;12.90;99.90
21570;DHT22;57598;50.888;4.746;2023-05-10T03:52:00;12.90;99.90
21570;DHT22;57598;50.888;4.746;2023-05-10T03:54:27;12.90;99.90
21570;DHT22;57598;50.888;4.746;2023-05-10T03:56:54;12.80;99.90
21570;DHT22;57598;50.888;4.746;2023-05-10T03:59:21;12.80;99.90
21570;DHT22;57598;50.888;4.746;2023-05-10T04:01:48;12.70;99.90
21570;DHT22;57598;50.888;4.746;2023-05-10T04:04:16;12.80;99.90
21570;DHT22;57598;50.888;4.746;2023-05-10T04:06:44;12.80;99.90
21570;DHT22;57598;50.888;4.746;2023-05-10T04:09:11;12.70;99.90
21570;DHT22;57598;50.888;4.746;2023-05-10T04:11:38;12.70;99.90
21570;DHT22;57598;50.888;4.746;2023-05-10T04:14:05;12.70;99.90
21570;DHT22;57598;50.888;4.746;2023-05-10T04:16:32;12.70;99.90
21570;DHT22;57598;50.888;4.746;2023-05-10T04:18:59;12.70;99.90
21570;DHT22;57598;50.888;4.746;2023-05-10T04:21:27;12.60;99.90
21570;DHT22;57598;50.888;4.746;2023-05-10T04:23:54;12.70;99.90
21570;DHT22;57598;50.888;4.746;2023-05-10T04:26:21;12.60;99.90
21570;DHT22;57598;50.888;4.746;2023-05-10T04:28:48;12.60;99.90
21570;DHT22;57598;50.888;4.746;2023-05-10T04:31:16;12.60;99.90
21570;DHT22;57598;50.888;4.746;2023-05-10T04:33:43;12.60;99.90
21570;DHT22;57598;50.888;4.746;2023-05-10T04:36:10;12.60;99.90
21570;DHT22;57598;50.888;4.746;2023-05-10T04:38:38;12.60;99.90
21570;DHT22;57598;50.888;4.746;2023-05-10T04:41:06;12.50;99.90
21570;DHT22;57598;50.888;4.746;2023-05-10T04:43:33;12.60;99.90
21570;DHT22;57598;50.888;4.746;2023-05-10T04:46:00;12.60;99.90
21570;DHT22;57598;50.888;4.746;2023-05-10T04:48:28;12.50;99.90
21570;DHT22;57598;50.888;4.746;2023-05-10T04:50:55;12.50;99.90
21570;DHT22;57598;50.888;4.746;2023-05-10T04:53:22;12.60;99.90
21570;DHT22;57598;50.888;4.746;2023-05-10T04:55:50;12.60;99.90
21570;DHT22;57598;50.888;4.746;2023-05-10T04:58:17;12.70;99.90
21570;DHT22;57598;50.888;4.746;2023-05-10T05:00:44;12.60;99.90
21570;DHT22;57598;50.888;4.746;2023-05-10T05:03:11;12.70;99.90
21570;DHT22;57598;50.888;4.746;2023-05-10T05:05:38;12.70;99.90
21570;DHT22;57598;50.888;4.746;2023-05-10T05:08:05;12.70;99.90
21570;DHT22;57598;50.888;4.746;2023-05-10T05:10:32;12.70;99.90
21570;DHT22;57598;50.888;4.746;2023-05-10T05:13:01;12.60;99.90
21570;DHT22;57598;50.888;4.746;2023-05-10T05:15:28;12.70;99.90
21570;DHT22;57598;50.888;4.746;2023-05-10T05:17:56;12.70;99.90
21570;DHT22;57598;50.888;4.746;2023-05-10T05:20:23;12.60;99.90
21570;DHT22;57598;50.888;4.746;2023-05-10T05:22:50;12.60;99.90
21570;DHT22;57598;50.888;4.746;2023-05-10T05:25:17;12.70;99.90
21570;DHT22;57598;50.888;4.746;2023-05-10T05:27:44;12.70;99.90
21570;DHT22;57598;50.888;4.746;2023-05-10T05:30:12;12.80;99.90
21570;DHT22;57598;50.888;4.746;2023-05-10T05:32:39;12.80;99.90
21570;DHT22;57598;50.888;4.746;2023-05-10T05:35:07;12.80;99.90
21570;DHT22;57598;50.888;4.746;2023-05-10T05:37:34;12.80;99.90
21570;DHT22;57598;50.888;4.746;2023-05-10T05:40:03;12.90;99.90
21570;DHT22;57598;50.888;4.746;2023-05-10T05:42:31;12.90;99.90
21570;DHT22;57598;50.888;4.746;2023-05-10T05:44:58;12.90;99.90
21570;DHT22;57598;50.888;4.746;2023-05-10T05:47:27;12.90;99.90
21570;DHT22;57598;50.888;4.746;2023-05-10T05:49:53;12.90;99.90
21570;DHT22;57598;50.888;4.746;2023-05-10T05:52:20;12.90;99.90
21570;DHT22;57598;50.888;4.746;2023-05-10T05:54:47;12.90;99.90
21570;DHT22;57598;50.888;4.746;2023-05-10T05:57:14;13.00;99.90
21570;DHT22;57598;50.888;4.746;2023-05-10T05:59:41;12.90;99.90
21570;DHT22;57598;50.888;4.746;2023-05-10T06:02:09;12.90;99.90
21570;DHT22;57598;50.888;4.746;2023-05-10T06:04:38;12.90;99.90
21570;DHT22;57598;50.888;4.746;2023-05-10T06:07:05;12.90;99.90
21570;DHT22;57598;50.888;4.746;2023-05-10T06:09:32;12.90;99.90
21570;DHT22;57598;50.888;4.746;2023-05-10T06:11:59;13.00;99.90
21570;DHT22;57598;50.888;4.746;2023-05-10T06:14:26;13.00;99.90
21570;DHT22;57598;50.888;4.746;2023-05-10T06:16:53;13.10;99.90
21570;DHT22;57598;50.888;4.746;2023-05-10T06:19:20;13.10;99.90
21570;DHT22;57598;50.888;4.746;2023-05-10T06:21:48;13.10;99.90
21570;DHT22;57598;50.888;4.746;2023-05-10T06:24:15;13.10;99.90
21570;DHT22;57598;50.888;4.746;2023-05-10T06:26:42;13.10;99.90
21570;DHT22;57598;50.888;4.746;2023-05-10T06:29:09;13.10;99.90
21570;DHT22;57598;50.888;4.746;2023-05-10T06:31:37;13.00;99.90
21570;DHT22;57598;50.888;4.746;2023-05-10T06:34:04;13.10;99.90
21570;DHT22;57598;50.888;4.746;2023-05-10T06:36:33;13.10;99.90
21570;DHT22;57598;50.888;4.746;2023-05-10T06:39:01;13.20;99.90
21570;DHT22;57598;50.888;4.746;2023-05-10T06:41:28;13.10;99.90
21570;DHT22;57598;50.888;4.746;2023-05-10T06:43:55;13.20;99.90
21570;DHT22;57598;50.888;4.746;2023-05-10T06:46:22;13.20;99.90
21570;DHT22;57598;50.888;4.746;2023-05-10T06:48:49;13.20;99.90
21570;DHT22;57598;50.888;4.746;2023-05-10T06:51:16;13.40;99.90
21570;DHT22;57598;50.888;4.746;2023-05-10T06:53:43;13.40;99.90
21570;DHT22;57598;50.888;4.746;2023-05-10T06:56:11;13.40;99.90
21570;DHT22;57598;50.888;4.746;2023-05-10T06:58:38;13.40;99.90
21570;DHT22;57598;50.888;4.746;2023-05-10T07:01:06;13.50;99.90
21570;DHT22;57598;50.888;4.746;2023-05-10T07:03:32;13.50;99.90
21570;DHT22;57598;50.888;4.746;2023-05-10T07:06:00;13.60;99.90
21570;DHT22;57598;50.888;4.746;2023-05-10T07:08:29;13.60;99.90
21570;DHT22;57598;50.888;4.746;2023-05-10T07:11:00;13.60;99.90
21570;DHT22;57598;50.888;4.746;2023-05-10T07:13:29;13.60;99.90
21570;DHT22;57598;50.888;4.746;2023-05-10T07:15:55;13.60;99.90
21570;DHT22;57598;50.888;4.746;2023-05-10T07:18:23;13.60;99.90
21570;DHT22;57598;50.888;4.746;2023-05-10T07:20:50;13.50;99.90
21570;DHT22;57598;50.888;4.746;2023-05-10T07:23:17;13.50;99.90
21570;DHT22;57598;50.888;4.746;2023-05-10T07:25:45;13.50;99.90
21570;DHT22;57598;50.888;4.746;2023-05-10T07:28:13;13.60;99.90
21570;DHT22;57598;50.888;4.746;2023-05-10T07:30:41;13.70;99.90
21570;DHT22;57598;50.888;4.746;2023-05-10T07:33:09;13.60;99.90
21570;DHT22;57598;50.888;4.746;2023-05-10T07:35:37;13.60;99.90
21570;DHT22;57598;50.888;4.746;2023-05-10T07:38:04;13.50;99.90
21570;DHT22;57598;50.888;4.746;2023-05-10T07:40:31;13.50;99.90
21570;DHT22;57598;50.888;4.746;2023-05-10T07:42:58;13.40;99.90
21570;DHT22;57598;50.888;4.746;2023-05-10T07:45:27;13.30;99.90
21570;DHT22;57598;50.888;4.746;2023-05-10T07:47:55;13.30;99.90
21570;DHT22;57598;50.888;4.746;2023-05-10T07:50:22;13.30;99.90
21570;DHT22;57598;50.888;4.746;2023-05-10T07:52:49;13.30;99.90
21570;DHT22;57598;50.888;4.746;2023-05-10T07:55:18;13.20;99.90
21570;DHT22;57598;50.888;4.746;2023-05-10T07:57:45;13.20;99.90
21570;DHT22;57598;50.888;4.746;2023-05-10T08:00:13;13.20;99.90
21570;DHT22;57598;50.888;4.746;2023-05-10T08:02:43;13.20;99.90
21570;DHT22;57598;50.888;4.746;2023-05-10T08:05:11;13.20;99.90
21570;DHT22;57598;50.888;4.746;2023-05-10T08:07:39;13.10;99.90
21570;DHT22;57598;50.888;4.746;2023-05-10T08:10:07;13.10;99.90
21570;DHT22;57598;50.888;4.746;2023-05-10T08:12:34;13.10;99.90
21570;DHT22;57598;50.888;4.746;2023-05-10T08:15:02;13.00;99.90
21570;DHT22;57598;50.888;4.746;2023-05-10T08:17:29;12.90;99.90
21570;DHT22;57598;50.888;4.746;2023-05-10T08:19:56;12.90;99.90
21570;DHT22;57598;50.888;4.746;2023-05-10T08:22:24;12.90;99.90
21570;DHT22;57598;50.888;4.746;2023-05-10T08:24:51;13.00;99.90
21570;DHT22;57598;50.888;4.746;2023-05-10T08:27:18;13.00;99.90
21570;DHT22;57598;50.888;4.746;2023-05-10T08:29:45;12.90;99.90
21570;DHT22;57598;50.888;4.746;2023-05-10T08:32:12;12.90;99.90
21570;DHT22;57598;50.888;4.746;2023-05-10T08:34:39;13.00;99.90
21570;DHT22;57598;50.888;4.746;2023-05-10T08:37:06;13.00;99.90
21570;DHT22;57598;50.888;4.746;2023-05-10T08:39:35;13.10;99.90
21570;DHT22;57598;50.888;4.746;2023-05-10T08:42:04;13.10;99.90
21570;DHT22;57598;50.888;4.746;2023-05-10T08:44:32;13.10;99.90
21570;DHT22;57598;50.888;4.746;2023-05-10T08:47:04;13.00;99.90
21570;DHT22;57598;50.888;4.746;2023-05-10T08:49:32;13.00;99.90
21570;DHT22;57598;50.888;4.746;2023-05-10T08:52:02;13.10;99.90
21570;DHT22;57598;50.888;4.746;2023-05-10T08:54:31;13.10;99.90
21570;DHT22;57598;50.888;4.746;2023-05-10T08:57:00;13.20;99.90
21570;DHT22;57598;50.888;4.746;2023-05-10T08:59:28;13.20;99.90
21570;DHT22;57598;50.888;4.746;2023-05-10T09:01:57;13.20;99.90
21570;DHT22;57598;50.888;4.746;2023-05-10T09:04:25;13.20;99.90
21570;DHT22;57598;50.888;4.746;2023-05-10T09:06:52;13.10;99.90
21570;DHT22;57598;50.888;4.746;2023-05-10T09:09:19;13.10;99.90
21570;DHT22;57598;50.888;4.746;2023-05-10T09:11:47;13.10;99.90
21570;DHT22;57598;50.888;4.746;2023-05-10T09:14:16;12.90;99.90
21570;DHT22;57598;50.888;4.746;2023-05-10T09:16:44;12.90;99.90
21570;DHT22;57598;50.888;4.746;2023-05-10T09:19:11;12.80;99.90
21570;DHT22;57598;50.888;4.746;2023-05-10T09:21:38;12.70;99.90
21570;DHT22;57598;50.888;4.746;2023-05-10T09:24:06;12.80;99.90
21570;DHT22;57598;50.888;4.746;2023-05-10T09:26:33;12.80;99.90
21570;DHT22;57598;50.888;4.746;2023-05-10T09:29:02;12.80;99.90
21570;DHT22;57598;50.888;4.746;2023-05-10T09:31:47;12.80;99.90
21570;DHT22;57598;50.888;4.746;2023-05-10T09:34:17;12.90;99.90
21570;DHT22;57598;50.888;4.746;2023-05-10T09:36:52;12.90;99.90
21570;DHT22;57598;50.888;4.746;2023-05-10T09:39:20;13.00;99.90
21570;DHT22;57598;50.888;4.746;2023-05-10T09:41:47;12.90;99.90
21570;DHT22;57598;50.888;4.746;2023-05-10T09:44:17;12.90;99.90
21570;DHT22;57598;50.888;4.746;2023-05-10T09:46:50;12.90;99.90
21570;DHT22;57598;50.888;4.746;2023-05-10T09:49:18;13.00;99.90
21570;DHT22;57598;50.888;4.746;2023-05-10T09:51:45;12.90;99.90
21570;DHT22;57598;50.888;4.746;2023-05-10T09:54:15;12.90;99.90
21570;DHT22;57598;50.888;4.746;2023-05-10T09:56:42;13.00;99.90
21570;DHT22;57598;50.888;4.746;2023-05-10T09:59:10;13.10;99.90
21570;DHT22;57598;50.888;4.746;2023-05-10T10:01:38;13.10;99.90
21570;DHT22;57598;50.888;4.746;2023-05-10T10:04:10;13.20;99.90
21570;DHT22;57598;50.888;4.746;2023-05-10T10:06:38;13.20;99.90
21570;DHT22;57598;50.888;4.746;2023-05-10T10:09:06;13.30;99.90
21570;DHT22;57598;50.888;4.746;2023-05-10T10:11:35;13.30;99.90
21570;DHT22;57598;50.888;4.746;2023-05-10T10:14:03;13.30;99.90
21570;DHT22;57598;50.888;4.746;2023-05-10T10:16:31;13.40;99.90
21570;DHT22;57598;50.888;4.746;2023-05-10T10:18:58;13.50;99.90
21570;DHT22;57598;50.888;4.746;2023-05-10T10:21:27;13.40;99.90
21570;DHT22;57598;50.888;4.746;2023-05-10T10:23:54;13.40;99.90
21570;DHT22;57598;50.888;4.746;2023-05-10T10:26:21;13.40;99.90
21570;DHT22;57598;50.888;4.746;2023-05-10T10:28:51;13.40;99.90
21570;DHT22;57598;50.888;4.746;2023-05-10T10:31:32;13.50;99.90
21570;DHT22;57598;50.888;4.746;2023-05-10T10:34:05;13.50;99.90
21570;DHT22;57598;50.888;4.746;2023-05-10T10:36:40;13.50;99.90
21570;DHT22;57598;50.888;4.746;2023-05-10T10:39:09;13.60;99.90
21570;DHT22;57598;50.888;4.746;2023-05-10T10:41:39;13.60;99.90
21570;DHT22;57598;50.888;4.746;2023-05-10T10:44:26;13.70;99.90
21570;DHT22;57598;50.888;4.746;2023-05-10T10:47:00;13.80;99.90
21570;DHT22;57598;50.888;4.746;2023-05-10T10:49:28;13.80;99.90
21570;DHT22;57598;50.888;4.746;2023-05-10T10:52:17;13.80;99.90
21570;DHT22;57598;50.888;4.746;2023-05-10T10:54:50;13.80;99.90
21570;DHT22;57598;50.888;4.746;2023-05-10T10:57:19;13.90;99.90
21570;DHT22;57598;50.888;4.746;2023-05-10T10:59:47;13.90;99.90
21570;DHT22;57598;50.888;4.746;2023-05-10T11:02:33;13.90;99.90
21570;DHT22;57598;50.888;4.746;2023-05-10T11:05:33;14.00;99.90
21570;DHT22;57598;50.888;4.746;2023-05-10T11:08:10;14.10;99.90
21570;DHT22;57598;50.888;4.746;2023-05-10T11:10:38;14.30;99.90
21570;DHT22;57598;50.888;4.746;2023-05-10T11:13:06;14.50;99.90
21570;DHT22;57598;50.888;4.746;2023-05-10T11:15:34;14.60;99.90
21570;DHT22;57598;50.888;4.746;2023-05-10T11:18:17;14.70;99.90
21570;DHT22;57598;50.888;4.746;2023-05-10T11:20:44;15.20;99.90
21570;DHT22;57598;50.888;4.746;2023-05-10T11:23:18;15.60;99.90
21570;DHT22;57598;50.888;4.746;2023-05-10T11:25:47;15.80;99.90
21570;DHT22;57598;50.888;4.746;2023-05-10T11:28:14;15.90;99.90
21570;DHT22;57598;50.888;4.746;2023-05-10T11:30:44;16.00;99.90
21570;DHT22;57598;50.888;4.746;2023-05-10T11:33:15;16.20;99.90
21570;DHT22;57598;50.888;4.746;2023-05-10T11:35:42;16.40;99.90
21570;DHT22;57598;50.888;4.746;2023-05-10T11:38:10;16.30;99.90
21570;DHT22;57598;50.888;4.746;2023-05-10T11:40:39;16.30;99.90
21570;DHT22;57598;50.888;4.746;2023-05-10T11:43:09;16.50;99.90
21570;DHT22;57598;50.888;4.746;2023-05-10T11:45:36;16.70;99.90
21570;DHT22;57598;50.888;4.746;2023-05-10T11:48:04;16.50;99.90
21570;DHT22;57598;50.888;4.746;2023-05-10T11:50:31;16.50;99.90
21570;DHT22;57598;50.888;4.746;2023-05-10T11:52:58;16.40;99.90
21570;DHT22;57598;50.888;4.746;2023-05-10T11:55:25;16.30;99.90
21570;DHT22;57598;50.888;4.746;2023-05-10T11:57:54;16.30;99.90
21570;DHT22;57598;50.888;4.746;2023-05-10T12:00:21;16.40;99.90
21570;DHT22;57598;50.888;4.746;2023-05-10T12:02:49;16.50;99.90
21570;DHT22;57598;50.888;4.746;2023-05-10T12:05:16;16.60;99.90
21570;DHT22;57598;50.888;4.746;2023-05-10T12:07:44;16.50;99.90
21570;DHT22;57598;50.888;4.746;2023-05-10T12:10:12;16.30;99.90
21570;DHT22;57598;50.888;4.746;2023-05-10T12:12:41;16.40;99.90
21570;DHT22;57598;50.888;4.746;2023-05-10T12:15:17;16.40;99.90
21570;DHT22;57598;50.888;4.746;2023-05-10T12:17:45;16.50;99.90
21570;DHT22;57598;50.888;4.746;2023-05-10T12:20:20;16.50;99.90
21570;DHT22;57598;50.888;4.746;2023-05-10T12:22:49;16.60;99.90
21570;DHT22;57598;50.888;4.746;2023-05-10T12:25:17;16.60;99.90
21570;DHT22;57598;50.888;4.746;2023-05-10T12:27:54;16.70;99.90
21570;DHT22;57598;50.888;4.746;2023-05-10T12:30:25;16.90;99.90
21570;DHT22;57598;50.888;4.746;2023-05-10T12:32:52;17.00;99.90
21570;DHT22;57598;50.888;4.746;2023-05-10T12:35:19;17.00;99.90
21570;DHT22;57598;50.888;4.746;2023-05-10T12:37:49;17.00;99.90
21570;DHT22;57598;50.888;4.746;2023-05-10T12:40:17;17.00;99.90
21570;DHT22;57598;50.888;4.746;2023-05-10T12:42:44;17.10;99.90
21570;DHT22;57598;50.888;4.746;2023-05-10T12:45:11;17.30;99.90
21570;DHT22;57598;50.888;4.746;2023-05-10T12:47:40;17.60;99.90
21570;DHT22;57598;50.888;4.746;2023-05-10T12:50:08;17.70;99.90
21570;DHT22;57598;50.888;4.746;2023-05-10T12:52:35;17.60;99.90
21570;DHT22;57598;50.888;4.746;2023-05-10T12:55:03;17.50;99.90
21570;DHT22;57598;50.888;4.746;2023-05-10T12:57:30;17.40;99.90
21570;DHT22;57598;50.888;4.746;2023-05-10T12:59:57;17.50;99.90
21570;DHT22;57598;50.888;4.746;2023-05-10T13:02:24;17.30;99.90
21570;DHT22;57598;50.888;4.746;2023-05-10T13:04:52;17.20;99.90
21570;DHT22;57598;50.888;4.746;2023-05-10T13:07:19;17.30;99.90
21570;DHT22;57598;50.888;4.746;2023-05-10T13:09:46;17.20;99.90
21570;DHT22;57598;50.888;4.746;2023-05-10T13:12:13;17.20;99.90
21570;DHT22;57598;50.888;4.746;2023-05-10T13:14:40;17.20;99.90
21570;DHT22;57598;50.888;4.746;2023-05-10T13:17:07;17.40;99.90
21570;DHT22;57598;50.888;4.746;2023-05-10T13:19:34;17.50;99.90
21570;DHT22;57598;50.888;4.746;2023-05-10T13:22:03;17.50;99.90
21570;DHT22;57598;50.888;4.746;2023-05-10T13:24:30;17.40;99.90
21570;DHT22;57598;50.888;4.746;2023-05-10T13:26:57;17.40;99.90
21570;DHT22;57598;50.888;4.746;2023-05-10T13:29:24;17.50;99.90
21570;DHT22;57598;50.888;4.746;2023-05-10T13:31:51;17.30;99.90
21570;DHT22;57598;50.888;4.746;2023-05-10T13:34:18;17.20;99.90
21570;DHT22;57598;50.888;4.746;2023-05-10T13:36:47;17.40;99.90
21570;DHT22;57598;50.888;4.746;2023-05-10T13:39:16;17.50;99.90
21570;DHT22;57598;50.888;4.746;2023-05-10T13:41:43;17.40;99.90
21570;DHT22;57598;50.888;4.746;2023-05-10T13:44:12;17.40;99.90
21570;DHT22;57598;50.888;4.746;2023-05-10T13:46:39;17.30;99.90
21570;DHT22;57598;50.888;4.746;2023-05-10T13:49:06;17.30;99.90
21570;DHT22;57598;50.888;4.746;2023-05-10T13:51:33;17.20;99.90
21570;DHT22;57598;50.888;4.746;2023-05-10T13:54:01;17.10;99.90
21570;DHT22;57598;50.888;4.746;2023-05-10T13:56:29;17.10;99.90
21570;DHT22;57598;50.888;4.746;2023-05-10T13:58:57;17.10;99.90
21570;DHT22;57598;50.888;4.746;2023-05-10T14:01:24;17.00;99.90
21570;DHT22;57598;50.888;4.746;2023-05-10T14:03:51;17.00;99.90
21570;DHT22;57598;50.888;4.746;2023-05-10T14:06:18;17.00;99.90
21570;DHT22;57598;50.888;4.746;2023-05-10T14:08:46;17.00;99.90
21570;DHT22;57598;50.888;4.746;2023-05-10T14:11:13;16.90;99.90
21570;DHT22;57598;50.888;4.746;2023-05-10T14:13:41;17.10;99.90
21570;DHT22;57598;50.888;4.746;2023-05-10T14:16:08;17.20;99.90
21570;DHT22;57598;50.888;4.746;2023-05-10T14:18:35;17.10;99.90
21570;DHT22;57598;50.888;4.746;2023-05-10T14:21:02;17.40;99.90
21570;DHT22;57598;50.888;4.746;2023-05-10T14:23:30;17.50;99.90
21570;DHT22;57598;50.888;4.746;2023-05-10T14:25:57;17.50;99.90
21570;DHT22;57598;50.888;4.746;2023-05-10T14:28:24;17.60;99.90
21570;DHT22;57598;50.888;4.746;2023-05-10T14:30:53;17.50;99.90
21570;DHT22;57598;50.888;4.746;2023-05-10T14:33:20;17.50;99.90
21570;DHT22;57598;50.888;4.746;2023-05-10T14:35:47;17.50;99.90
21570;DHT22;57598;50.888;4.746;2023-05-10T14:38:14;17.60;99.90
21570;DHT22;57598;50.888;4.746;2023-05-10T14:40:41;17.60;99.90
21570;DHT22;57598;50.888;4.746;2023-05-10T14:43:09;17.50;99.90
21570;DHT22;57598;50.888;4.746;2023-05-10T14:45:36;17.40;99.90
21570;DHT22;57598;50.888;4.746;2023-05-10T14:48:04;17.30;99.90
21570;DHT22;57598;50.888;4.746;2023-05-10T14:50:32;17.50;99.90
21570;DHT22;57598;50.888;4.746;2023-05-10T14:52:59;17.50;99.90
21570;DHT22;57598;50.888;4.746;2023-05-10T14:55:26;17.50;99.90
21570;DHT22;57598;50.888;4.746;2023-05-10T14:57:53;17.50;99.90
21570;DHT22;57598;50.888;4.746;2023-05-10T15:00:20;17.50;99.90
21570;DHT22;57598;50.888;4.746;2023-05-10T15:02:47;17.60;99.90
21570;DHT22;57598;50.888;4.746;2023-05-10T15:05:16;17.60;99.90
21570;DHT22;57598;50.888;4.746;2023-05-10T15:07:43;17.60;99.90
21570;DHT22;57598;50.888;4.746;2023-05-10T15:10:11;17.50;99.90
21570;DHT22;57598;50.888;4.746;2023-05-10T15:12:38;17.40;99.90
21570;DHT22;57598;50.888;4.746;2023-05-10T15:15:06;17.40;99.90
21570;DHT22;57598;50.888;4.746;2023-05-10T15:17:34;17.30;99.90
21570;DHT22;57598;50.888;4.746;2023-05-10T15:20:01;17.30;99.90
21570;DHT22;57598;50.888;4.746;2023-05-10T15:22:30;17.30;99.90
21570;DHT22;57598;50.888;4.746;2023-05-10T15:24:58;17.30;99.90
21570;DHT22;57598;50.888;4.746;2023-05-10T15:27:25;17.30;99.90
21570;DHT22;57598;50.888;4.746;2023-05-10T15:29:53;17.20;99.90
21570;DHT22;57598;50.888;4.746;2023-05-10T15:32:20;17.20;99.90
21570;DHT22;57598;50.888;4.746;2023-05-10T15:34:47;17.40;99.90
21570;DHT22;57598;50.888;4.746;2023-05-10T15:37:14;17.60;99.90
21570;DHT22;57598;50.888;4.746;2023-05-10T15:39:43;17.70;99.90